sensor_id;sensor_type;location;lat;lon;timestamp;temperature;humidity
16441;DHT22;8330;-33.858;151.184;2023-04-25T00:02:28;21.80;99.90
16441;DHT22;8330;-33.858;151.184;2023-04-25T00:05:00;21.90;99.90
16441;DHT22;8330;-33.858;151.184;2023-04-25T00:07:31;22.00;99.90
16441;DHT22;8330;-33.858;151.184;2023-04-25T00:10:02;22.00;99.90
16441;DHT22;8330;-33.858;151.184;2023-04-25T00:12:33;22.00;99.90
16441;DHT22;8330;-33.858;151.184;2023-04-25T00:15:07;21.90;99.90
16441;DHT22;8330;-33.858;151.184;2023-04-25T00:17:38;22.00;99.90
16441;DHT22;8330;-33.858;151.184;2023-04-25T00:20:11;22.00;99.90
16441;DHT22;8330;-33.858;151.184;2023-04-25T00:22:43;22.00;99.90
16441;DHT22;8330;-33.858;151.184;2023-04-25T00:25:14;22.20;99.90
16441;DHT22;8330;-33.858;151.184;2023-04-25T00:27:45;22.20;99.90
16441;DHT22;8330;-33.858;151.184;2023-04-25T00:30:18;22.30;99.90
16441;DHT22;8330;-33.858;151.184;2023-04-25T00:32:50;22.50;99.90
16441;DHT22;8330;-33.858;151.184;2023-04-25T00:35:21;22.50;99.90
16441;DHT22;8330;-33.858;151.184;2023-04-25T00:37:52;22.60;99.90
16441;DHT22;8330;-33.858;151.184;2023-04-25T00:40:23;22.60;99.90
16441;DHT22;8330;-33.858;151.184;2023-04-25T00:42:54;22.70;99.90
16441;DHT22;8330;-33.858;151.184;2023-04-25T00:45:29;22.80;99.90
16441;DHT22;8330;-33.858;151.184;2023-04-25T00:48:00;22.80;99.90
16441;DHT22;8330;-33.858;151.184;2023-04-25T00:50:32;22.80;99.90
16441;DHT22;8330;-33.858;151.184;2023-04-25T00:53:04;22.90;99.90
16441;DHT22;8330;-33.858;151.184;2023-04-25T00:55:37;23.10;99.90
16441;DHT22;8330;-33.858;151.184;2023-04-25T00:58:10;23.10;99.90
16441;DHT22;8330;-33.858;151.184;2023-04-25T01:00:43;23.10;99.90
16441;DHT22;8330;-33.858;151.184;2023-04-25T01:03:15;23.20;99.90
16441;DHT22;8330;-33.858;151.184;2023-04-25T01:05:47;23.30;99.90
16441;DHT22;8330;-33.858;151.184;2023-04-25T01:08:19;23.30;99.90
16441;DHT22;8330;-33.858;151.184;2023-04-25T01:10:51;23.30;99.90
16441;DHT22;8330;-33.858;151.184;2023-04-25T01:13:23;23.40;99.90
16441;DHT22;8330;-33.858;151.184;2023-04-25T01:15:56;23.50;99.90
16441;DHT22;8330;-33.858;151.184;2023-04-25T01:18:28;23.50;99.90
16441;DHT22;8330;-33.858;151.184;2023-04-25T01:21:03;23.70;99.90
16441;DHT22;8330;-33.858;151.184;2023-04-25T01:23:38;23.60;99.90
16441;DHT22;8330;-33.858;151.184;2023-04-25T01:26:10;23.70;99.90
16441;DHT22;8330;-33.858;151.184;2023-04-25T01:28:42;23.90;99.90
16441;DHT22;8330;-33.858;151.184;2023-04-25T01:31:13;24.00;99.90
16441;DHT22;8330;-33.858;151.184;2023-04-25T01:33:45;24.10;99.90
16441;DHT22;8330;-33.858;151.184;2023-04-25T01:36:19;24.10;99.90
16441;DHT22;8330;-33.858;151.184;2023-04-25T01:38:51;24.10;99.90
16441;DHT22;8330;-33.858;151.184;2023-04-25T01:41:22;24.10;99.90
16441;DHT22;8330;-33.858;151.184;2023-04-25T01:43:53;24.20;99.90
16441;DHT22;8330;-33.858;151.184;2023-04-25T01:46:24;24.10;99.90
16441;DHT22;8330;-33.858;151.184;2023-04-25T01:48:55;24.10;99.90
16441;DHT22;8330;-33.858;151.184;2023-04-25T01:51:30;23.90;99.90
16441;DHT22;8330;-33.858;151.184;2023-04-25T01:54:01;24.00;99.90
16441;DHT22;8330;-33.858;151.184;2023-04-25T01:56:36;23.90;99.90
16441;DHT22;8330;-33.858;151.184;2023-04-25T01:59:08;24.00;99.90
16441;DHT22;8330;-33.858;151.184;2023-04-25T02:01:39;24.10;99.90
16441;DHT22;8330;-33.858;151.184;2023-04-25T02:04:10;24.20;99.90
16441;DHT22;8330;-33.858;151.184;2023-04-25T02:06:43;24.40;99.90
16441;DHT22;8330;-33.858;151.184;2023-04-25T02:09:14;24.30;99.90
16441;DHT22;8330;-33.858;151.184;2023-04-25T02:11:45;24.30;99.90
16441;DHT22;8330;-33.858;151.184;2023-04-25T02:14:17;24.30;99.90
16441;DHT22;8330;-33.858;151.184;2023-04-25T02:16:48;24.30;99.90
16441;DHT22;8330;-33.858;151.184;2023-04-25T02:19:19;24.20;99.90
16441;DHT22;8330;-33.858;151.184;2023-04-25T02:21:52;24.10;99.90
16441;DHT22;8330;-33.858;151.184;2023-04-25T02:24:25;24.00;99.90
16441;DHT22;8330;-33.858;151.184;2023-04-25T02:26:56;24.00;99.90
16441;DHT22;8330;-33.858;151.184;2023-04-25T02:29:28;24.20;99.90
16441;DHT22;8330;-33.858;151.184;2023-04-25T02:32:01;24.30;99.90
16441;DHT22;8330;-33.858;151.184;2023-04-25T02:34:35;24.50;99.90
16441;DHT22;8330;-33.858;151.184;2023-04-25T02:37:08;24.60;99.90
16441;DHT22;8330;-33.858;151.184;2023-04-25T02:39:39;24.70;99.90
16441;DHT22;8330;-33.858;151.184;2023-04-25T02:42:10;24.90;99.90
16441;DHT22;8330;-33.858;151.184;2023-04-25T02:44:41;24.90;99.90
16441;DHT22;8330;-33.858;151.184;2023-04-25T02:47:12;25.00;99.90
16441;DHT22;8330;-33.858;151.184;2023-04-25T02:49:43;25.00;99.90
16441;DHT22;8330;-33.858;151.184;2023-04-25T02:52:16;24.90;99.90
16441;DHT22;8330;-33.858;151.184;2023-04-25T02:54:48;24.70;99.90
16441;DHT22;8330;-33.858;151.184;2023-04-25T02:57:19;24.70;99.90
16441;DHT22;8330;-33.858;151.184;2023-04-25T02:59:50;24.70;99.90
16441;DHT22;8330;-33.858;151.184;2023-04-25T03:02:21;24.80;99.90
16441;DHT22;8330;-33.858;151.184;2023-04-25T03:04:53;24.70;99.90
16441;DHT22;8330;-33.858;151.184;2023-04-25T03:07:26;24.60;99.90
16441;DHT22;8330;-33.858;151.184;2023-04-25T03:09:57;24.40;99.90
16441;DHT22;8330;-33.858;151.184;2023-04-25T03:12:28;24.50;99.90
16441;DHT22;8330;-33.858;151.184;2023-04-25T03:15:01;24.40;99.90
16441;DHT22;8330;-33.858;151.184;2023-04-25T03:17:32;24.30;99.90
16441;DHT22;8330;-33.858;151.184;2023-04-25T03:20:03;24.40;99.90
16441;DHT22;8330;-33.858;151.184;2023-04-25T03:22:38;24.40;99.90
16441;DHT22;8330;-33.858;151.184;2023-04-25T03:25:09;24.50;99.90
16441;DHT22;8330;-33.858;151.184;2023-04-25T03:27:41;24.60;99.90
16441;DHT22;8330;-33.858;151.184;2023-04-25T03:30:12;24.60;99.90
16441;DHT22;8330;-33.858;151.184;2023-04-25T03:32:43;24.50;99.90
16441;DHT22;8330;-33.858;151.184;2023-04-25T03:35:15;24.50;99.90
16441;DHT22;8330;-33.858;151.184;2023-04-25T03:37:48;24.60;99.90
16441;DHT22;8330;-33.858;151.184;2023-04-25T03:40:19;24.60;99.90
16441;DHT22;8330;-33.858;151.184;2023-04-25T03:42:51;24.60;99.90
16441;DHT22;8330;-33.858;151.184;2023-04-25T03:45:22;24.60;99.90
16441;DHT22;8330;-33.858;151.184;2023-04-25T03:47:53;24.60;99.90
16441;DHT22;8330;-33.858;151.184;2023-04-25T03:50:25;24.50;99.90
16441;DHT22;8330;-33.858;151.184;2023-04-25T03:52:58;24.60;99.90
16441;DHT22;8330;-33.858;151.184;2023-04-25T03:55:30;24.60;99.90
16441;DHT22;8330;-33.858;151.184;2023-04-25T03:58:02;24.60;99.90
16441;DHT22;8330;-33.858;151.184;2023-04-25T04:00:34;24.50;99.90
16441;DHT22;8330;-33.858;151.184;2023-04-25T04:03:05;24.50;99.90
16441;DHT22;8330;-33.858;151.184;2023-04-25T04:05:36;24.40;99.90
16441;DHT22;8330;-33.858;151.184;2023-04-25T04:08:10;24.30;99.90
16441;DHT22;8330;-33.858;151.184;2023-04-25T04:10:41;24.30;99.90
16441;DHT22;8330;-33.858;151.184;2023-04-25T04:13:16;24.20;99.90
16441;DHT22;8330;-33.858;151.184;2023-04-25T04:15:48;24.20;99.90
16441;DHT22;8330;-33.858;151.184;2023-04-25T04:18:20;24.10;99.90
16441;DHT22;8330;-33.858;151.184;2023-04-25T04:20:51;24.20;99.90
16441;DHT22;8330;-33.858;151.184;2023-04-25T04:23:24;24.20;99.90
16441;DHT22;8330;-33.858;151.184;2023-04-25T04:25:58;24.20;99.90
16441;DHT22;8330;-33.858;151.184;2023-04-25T04:28:31;24.20;99.90
16441;DHT22;8330;-33.858;151.184;2023-04-25T04:31:02;24.20;99.90
16441;DHT22;8330;-33.858;151.184;2023-04-25T04:33:40;24.20;99.90
16441;DHT22;8330;-33.858;151.184;2023-04-25T04:36:13;24.00;99.90
16441;DHT22;8330;-33.858;151.184;2023-04-25T04:38:50;24.10;99.90
16441;DHT22;8330;-33.858;151.184;2023-04-25T04:41:21;23.90;99.90
16441;DHT22;8330;-33.858;151.184;2023-04-25T04:43:52;23.90;99.90
16441;DHT22;8330;-33.858;151.184;2023-04-25T04:46:24;23.80;99.90
16441;DHT22;8330;-33.858;151.184;2023-04-25T04:48:55;23.70;99.90
16441;DHT22;8330;-33.858;151.184;2023-04-25T04:51:26;23.70;99.90
16441;DHT22;8330;-33.858;151.184;2023-04-25T04:54:00;23.70;99.90
16441;DHT22;8330;-33.858;151.184;2023-04-25T04:56:31;23.80;99.90
16441;DHT22;8330;-33.858;151.184;2023-04-25T04:59:02;23.80;99.90
16441;DHT22;8330;-33.858;151.184;2023-04-25T05:01:33;23.80;99.90
16441;DHT22;8330;-33.858;151.184;2023-04-25T05:04:05;23.90;99.90
16441;DHT22;8330;-33.858;151.184;2023-04-25T05:06:36;23.80;99.90
16441;DHT22;8330;-33.858;151.184;2023-04-25T05:09:09;23.80;99.90
16441;DHT22;8330;-33.858;151.184;2023-04-25T05:11:40;23.70;99.90
16441;DHT22;8330;-33.858;151.184;2023-04-25T05:14:11;23.70;99.90
16441;DHT22;8330;-33.858;151.184;2023-04-25T05:16:43;23.70;99.90
16441;DHT22;8330;-33.858;151.184;2023-04-25T05:19:14;23.70;99.90
16441;DHT22;8330;-33.858;151.184;2023-04-25T05:21:46;23.70;99.90
16441;DHT22;8330;-33.858;151.184;2023-04-25T05:24:19;23.70;99.90
16441;DHT22;8330;-33.858;151.184;2023-04-25T05:26:50;23.70;99.90
16441;DHT22;8330;-33.858;151.184;2023-04-25T05:29:21;23.80;99.90
16441;DHT22;8330;-33.858;151.184;2023-04-25T05:31:52;23.80;99.90
16441;DHT22;8330;-33.858;151.184;2023-04-25T05:34:23;23.90;99.90
16441;DHT22;8330;-33.858;151.184;2023-04-25T05:36:58;23.90;99.90
16441;DHT22;8330;-33.858;151.184;2023-04-25T05:39:33;23.90;99.90
16441;DHT22;8330;-33.858;151.184;2023-04-25T05:42:04;23.90;99.90
16441;DHT22;8330;-33.858;151.184;2023-04-25T05:44:35;23.90;99.90
16441;DHT22;8330;-33.858;151.184;2023-04-25T05:47:06;23.90;99.90
16441;DHT22;8330;-33.858;151.184;2023-04-25T05:49:37;23.90;99.90
16441;DHT22;8330;-33.858;151.184;2023-04-25T05:52:08;23.90;99.90
16441;DHT22;8330;-33.858;151.184;2023-04-25T05:54:41;23.90;99.90
16441;DHT22;8330;-33.858;151.184;2023-04-25T05:57:20;23.90;99.90
16441;DHT22;8330;-33.858;151.184;2023-04-25T05:59:51;24.00;99.90
16441;DHT22;8330;-33.858;151.184;2023-04-25T06:02:23;24.00;99.90
16441;DHT22;8330;-33.858;151.184;2023-04-25T06:04:54;24.10;99.90
16441;DHT22;8330;-33.858;151.184;2023-04-25T06:07:26;24.10;99.90
16441;DHT22;8330;-33.858;151.184;2023-04-25T06:10:00;24.10;99.90
16441;DHT22;8330;-33.858;151.184;2023-04-25T06:12:34;24.10;99.90
16441;DHT22;8330;-33.858;151.184;2023-04-25T06:15:06;24.10;99.90
16441;DHT22;8330;-33.858;151.184;2023-04-25T06:17:38;24.20;99.90
16441;DHT22;8330;-33.858;151.184;2023-04-25T06:20:10;24.30;99.90
16441;DHT22;8330;-33.858;151.184;2023-04-25T06:22:41;24.40;99.90
16441;DHT22;8330;-33.858;151.184;2023-04-25T06:25:14;24.40;99.90
16441;DHT22;8330;-33.858;151.184;2023-04-25T06:27:45;24.40;99.90
16441;DHT22;8330;-33.858;151.184;2023-04-25T06:30:16;24.30;99.90
16441;DHT22;8330;-33.858;151.184;2023-04-25T06:32:50;24.30;99.90
16441;DHT22;8330;-33.858;151.184;2023-04-25T06:35:21;24.40;99.90
16441;DHT22;8330;-33.858;151.184;2023-04-25T06:37:52;24.30;99.90
16441;DHT22;8330;-33.858;151.184;2023-04-25T06:40:25;24.30;99.90
16441;DHT22;8330;-33.858;151.184;2023-04-25T06:42:56;24.30;99.90
16441;DHT22;8330;-33.858;151.184;2023-04-25T06:45:27;24.20;99.90
16441;DHT22;8330;-33.858;151.184;2023-04-25T06:47:58;24.00;99.90
16441;DHT22;8330;-33.858;151.184;2023-04-25T06:50:29;23.90;99.90
16441;DHT22;8330;-33.858;151.184;2023-04-25T06:53:01;23.80;99.90
16441;DHT22;8330;-33.858;151.184;2023-04-25T06:55:34;23.70;99.90
16441;DHT22;8330;-33.858;151.184;2023-04-25T06:58:05;23.60;99.90
16441;DHT22;8330;-33.858;151.184;2023-04-25T07:00:36;23.40;99.90
16441;DHT22;8330;-33.858;151.184;2023-04-25T07:03:07;23.30;99.90
16441;DHT22;8330;-33.858;151.184;2023-04-25T07:05:38;23.20;99.90
16441;DHT22;8330;-33.858;151.184;2023-04-25T07:08:09;23.10;99.90
16441;DHT22;8330;-33.858;151.184;2023-04-25T07:10:44;23.00;99.90
16441;DHT22;8330;-33.858;151.184;2023-04-25T07:13:18;22.90;99.90
16441;DHT22;8330;-33.858;151.184;2023-04-25T07:15:49;22.80;99.90
16441;DHT22;8330;-33.858;151.184;2023-04-25T07:18:19;22.70;99.90
16441;DHT22;8330;-33.858;151.184;2023-04-25T07:20:51;22.70;99.90
16441;DHT22;8330;-33.858;151.184;2023-04-25T07:23:22;22.60;99.90
16441;DHT22;8330;-33.858;151.184;2023-04-25T07:25:54;22.50;99.90
16441;DHT22;8330;-33.858;151.184;2023-04-25T07:28:25;22.50;99.90
16441;DHT22;8330;-33.858;151.184;2023-04-25T07:30:55;22.40;99.90
16441;DHT22;8330;-33.858;151.184;2023-04-25T07:33:26;22.30;99.90
16441;DHT22;8330;-33.858;151.184;2023-04-25T07:35:59;22.30;99.90
16441;DHT22;8330;-33.858;151.184;2023-04-25T07:38:30;22.30;99.90
16441;DHT22;8330;-33.858;151.184;2023-04-25T07:41:02;22.20;99.90
16441;DHT22;8330;-33.858;151.184;2023-04-25T07:43:33;22.20;99.90
16441;DHT22;8330;-33.858;151.184;2023-04-25T07:46:05;22.10;99.90
16441;DHT22;8330;-33.858;151.184;2023-04-25T07:48:36;22.10;99.90
16441;DHT22;8330;-33.858;151.184;2023-04-25T07:51:07;22.10;99.90
16441;DHT22;8330;-33.858;151.184;2023-04-25T07:53:37;22.10;99.90
16441;DHT22;8330;-33.858;151.184;2023-04-25T07:56:10;22.10;99.90
16441;DHT22;8330;-33.858;151.184;2023-04-25T07:58:41;22.10;99.90
16441;DHT22;8330;-33.858;151.184;2023-04-25T08:01:12;22.00;99.90
16441;DHT22;8330;-33.858;151.184;2023-04-25T08:03:44;22.00;99.90
16441;DHT22;8330;-33.858;151.184;2023-04-25T08:06:16;22.00;99.90
16441;DHT22;8330;-33.858;151.184;2023-04-25T08:08:48;22.00;99.90
16441;DHT22;8330;-33.858;151.184;2023-04-25T08:11:20;22.00;99.90
16441;DHT22;8330;-33.858;151.184;2023-04-25T08:13:51;21.90;99.90
16441;DHT22;8330;-33.858;151.184;2023-04-25T08:16:22;21.90;99.90
16441;DHT22;8330;-33.858;151.184;2023-04-25T08:18:53;21.90;99.90
16441;DHT22;8330;-33.858;151.184;2023-04-25T08:21:24;21.80;99.90
16441;DHT22;8330;-33.858;151.184;2023-04-25T08:23:54;21.80;99.90
16441;DHT22;8330;-33.858;151.184;2023-04-25T08:26:28;21.80;99.90
16441;DHT22;8330;-33.858;151.184;2023-04-25T08:29:00;21.80;99.90
16441;DHT22;8330;-33.858;151.184;2023-04-25T08:31:32;21.80;99.90
16441;DHT22;8330;-33.858;151.184;2023-04-25T08:34:02;21.80;99.90
16441;DHT22;8330;-33.858;151.184;2023-04-25T08:36:33;21.70;99.90
16441;DHT22;8330;-33.858;151.184;2023-04-25T08:39:04;21.70;99.90
16441;DHT22;8330;-33.858;151.184;2023-04-25T08:41:39;21.70;99.90
16441;DHT22;8330;-33.858;151.184;2023-04-25T08:44:12;21.70;99.90
16441;DHT22;8330;-33.858;151.184;2023-04-25T08:46:46;21.70;99.90
16441;DHT22;8330;-33.858;151.184;2023-04-25T08:49:19;21.60;99.90
16441;DHT22;8330;-33.858;151.184;2023-04-25T08:51:50;21.60;99.90
16441;DHT22;8330;-33.858;151.184;2023-04-25T08:54:24;21.60;99.90
16441;DHT22;8330;-33.858;151.184;2023-04-25T08:57:02;21.60;99.90
16441;DHT22;8330;-33.858;151.184;2023-04-25T08:59:36;21.60;99.90
16441;DHT22;8330;-33.858;151.184;2023-04-25T09:02:08;21.50;99.90
16441;DHT22;8330;-33.858;151.184;2023-04-25T09:04:45;21.50;99.90
16441;DHT22;8330;-33.858;151.184;2023-04-25T09:07:16;21.50;99.90
16441;DHT22;8330;-33.858;151.184;2023-04-25T09:09:49;21.50;99.90
16441;DHT22;8330;-33.858;151.184;2023-04-25T09:12:24;21.50;99.90
16441;DHT22;8330;-33.858;151.184;2023-04-25T09:15:05;21.50;99.90
16441;DHT22;8330;-33.858;151.184;2023-04-25T09:17:36;21.50;99.90
16441;DHT22;8330;-33.858;151.184;2023-04-25T09:20:09;21.50;99.90
16441;DHT22;8330;-33.858;151.184;2023-04-25T09:22:40;21.40;99.90
16441;DHT22;8330;-33.858;151.184;2023-04-25T09:25:11;21.50;99.90
16441;DHT22;8330;-33.858;151.184;2023-04-25T09:27:53;21.50;99.90
16441;DHT22;8330;-33.858;151.184;2023-04-25T09:30:31;21.50;99.90
16441;DHT22;8330;-33.858;151.184;2023-04-25T09:33:05;21.40;99.90
16441;DHT22;8330;-33.858;151.184;2023-04-25T09:35:40;21.40;99.90
16441;DHT22;8330;-33.858;151.184;2023-04-25T09:38:13;21.40;99.90
16441;DHT22;8330;-33.858;151.184;2023-04-25T09:40:47;21.40;99.90
16441;DHT22;8330;-33.858;151.184;2023-04-25T09:43:23;21.30;99.90
16441;DHT22;8330;-33.858;151.184;2023-04-25T09:45:54;21.30;99.90
16441;DHT22;8330;-33.858;151.184;2023-04-25T09:48:28;21.30;99.90
16441;DHT22;8330;-33.858;151.184;2023-04-25T09:51:16;21.30;99.90
16441;DHT22;8330;-33.858;151.184;2023-04-25T09:53:47;21.30;99.90
16441;DHT22;8330;-33.858;151.184;2023-04-25T09:56:21;21.30;99.90
16441;DHT22;8330;-33.858;151.184;2023-04-25T09:58:55;21.30;99.90
16441;DHT22;8330;-33.858;151.184;2023-04-25T10:01:26;21.20;99.90
16441;DHT22;8330;-33.858;151.184;2023-04-25T10:03:59;21.20;99.90
16441;DHT22;8330;-33.858;151.184;2023-04-25T10:06:32;21.20;99.90
16441;DHT22;8330;-33.858;151.184;2023-04-25T10:09:08;21.20;99.90
16441;DHT22;8330;-33.858;151.184;2023-04-25T10:11:40;21.20;99.90
16441;DHT22;8330;-33.858;151.184;2023-04-25T10:14:14;21.10;99.90
16441;DHT22;8330;-33.858;151.184;2023-04-25T10:16:46;21.10;99.90
16441;DHT22;8330;-33.858;151.184;2023-04-25T10:19:18;21.10;99.90
16441;DHT22;8330;-33.858;151.184;2023-04-25T10:21:51;21.00;99.90
16441;DHT22;8330;-33.858;151.184;2023-04-25T10:24:22;21.10;99.90
16441;DHT22;8330;-33.858;151.184;2023-04-25T10:26:53;21.10;99.90
16441;DHT22;8330;-33.858;151.184;2023-04-25T10:29:27;21.00;99.90
16441;DHT22;8330;-33.858;151.184;2023-04-25T10:31:59;21.00;99.90
16441;DHT22;8330;-33.858;151.184;2023-04-25T10:34:42;21.00;99.90
16441;DHT22;8330;-33.858;151.184;2023-04-25T10:37:14;21.00;99.90
16441;DHT22;8330;-33.858;151.184;2023-04-25T10:39:45;20.90;99.90
16441;DHT22;8330;-33.858;151.184;2023-04-25T10:42:16;20.90;99.90
16441;DHT22;8330;-33.858;151.184;2023-04-25T10:45:04;20.80;99.90
16441;DHT22;8330;-33.858;151.184;2023-04-25T10:47:43;20.80;99.90
16441;DHT22;8330;-33.858;151.184;2023-04-25T10:50:16;20.80;99.90
16441;DHT22;8330;-33.858;151.184;2023-04-25T10:52:49;20.80;99.90
16441;DHT22;8330;-33.858;151.184;2023-04-25T10:55:21;20.80;99.90
16441;DHT22;8330;-33.858;151.184;2023-04-25T10:57:52;20.80;99.90
16441;DHT22;8330;-33.858;151.184;2023-04-25T11:00:25;20.70;99.90
16441;DHT22;8330;-33.858;151.184;2023-04-25T11:03:03;20.70;99.90
16441;DHT22;8330;-33.858;151.184;2023-04-25T11:05:35;20.70;99.90
16441;DHT22;8330;-33.858;151.184;2023-04-25T11:08:12;20.60;99.90
16441;DHT22;8330;-33.858;151.184;2023-04-25T11:10:44;20.60;99.90
16441;DHT22;8330;-33.858;151.184;2023-04-25T11:13:15;20.60;99.90
16441;DHT22;8330;-33.858;151.184;2023-04-25T11:15:52;20.60;99.90
16441;DHT22;8330;-33.858;151.184;2023-04-25T11:18:25;20.60;99.90
16441;DHT22;8330;-33.858;151.184;2023-04-25T11:20:57;20.60;99.90
16441;DHT22;8330;-33.858;151.184;2023-04-25T11:23:29;20.50;99.90
16441;DHT22;8330;-33.858;151.184;2023-04-25T11:26:01;20.50;99.90
16441;DHT22;8330;-33.858;151.184;2023-04-25T11:28:35;20.50;99.90
16441;DHT22;8330;-33.858;151.184;2023-04-25T11:31:08;20.50;99.90
16441;DHT22;8330;-33.858;151.184;2023-04-25T11:33:39;20.50;99.90
16441;DHT22;8330;-33.858;151.184;2023-04-25T11:36:12;20.50;99.90
16441;DHT22;8330;-33.858;151.184;2023-04-25T11:38:44;20.50;99.90
16441;DHT22;8330;-33.858;151.184;2023-04-25T11:41:15;20.50;99.90
16441;DHT22;8330;-33.858;151.184;2023-04-25T11:43:47;20.50;99.90
16441;DHT22;8330;-33.858;151.184;2023-04-25T11:46:22;20.60;99.90
16441;DHT22;8330;-33.858;151.184;2023-04-25T11:48:57;20.60;99.90
16441;DHT22;8330;-33.858;151.184;2023-04-25T11:51:28;20.50;99.90
16441;DHT22;8330;-33.858;151.184;2023-04-25T11:53:59;20.60;99.90
16441;DHT22;8330;-33.858;151.184;2023-04-25T11:56:30;20.50;99.90
16441;DHT22;8330;-33.858;151.184;2023-04-25T11:59:04;20.50;99.90
16441;DHT22;8330;-33.858;151.184;2023-04-25T12:01:46;20.50;99.90
16441;DHT22;8330;-33.858;151.184;2023-04-25T12:04:19;20.50;99.90
16441;DHT22;8330;-33.858;151.184;2023-04-25T12:06:51;20.50;99.90
16441;DHT22;8330;-33.858;151.184;2023-04-25T12:09:29;20.50;99.90
16441;DHT22;8330;-33.858;151.184;2023-04-25T12:12:01;20.40;99.90
16441;DHT22;8330;-33.858;151.184;2023-04-25T12:14:34;20.40;99.90
16441;DHT22;8330;-33.858;151.184;2023-04-25T12:17:07;20.40;99.90
16441;DHT22;8330;-33.858;151.184;2023-04-25T12:19:39;20.40;99.90
16441;DHT22;8330;-33.858;151.184;2023-04-25T12:22:22;20.40;99.90
16441;DHT22;8330;-33.858;151.184;2023-04-25T12:24:53;20.40;99.90
16441;DHT22;8330;-33.858;151.184;2023-04-25T12:27:27;20.30;99.90
16441;DHT22;8330;-33.858;151.184;2023-04-25T12:30:01;20.30;99.90
16441;DHT22;8330;-33.858;151.184;2023-04-25T12:32:38;20.30;99.90
16441;DHT22;8330;-33.858;151.184;2023-04-25T12:35:09;20.20;99.90
16441;DHT22;8330;-33.858;151.184;2023-04-25T12:37:40;20.20;99.90
16441;DHT22;8330;-33.858;151.184;2023-04-25T12:40:12;20.20;99.90
16441;DHT22;8330;-33.858;151.184;2023-04-25T12:42:43;20.20;99.90
16441;DHT22;8330;-33.858;151.184;2023-04-25T12:45:14;20.20;99.90
16441;DHT22;8330;-33.858;151.184;2023-04-25T12:47:47;20.20;99.90
16441;DHT22;8330;-33.858;151.184;2023-04-25T12:50:19;20.20;99.90
16441;DHT22;8330;-33.858;151.184;2023-04-25T12:52:50;20.20;99.90
16441;DHT22;8330;-33.858;151.184;2023-04-25T12:55:22;20.10;99.90
16441;DHT22;8330;-33.858;151.184;2023-04-25T12:57:53;20.10;99.90
16441;DHT22;8330;-33.858;151.184;2023-04-25T13:00:24;20.10;99.90
16441;DHT22;8330;-33.858;151.184;2023-04-25T13:02:58;20.10;99.90
16441;DHT22;8330;-33.858;151.184;2023-04-25T13:05:29;20.20;99.90
16441;DHT22;8330;-33.858;151.184;2023-04-25T13:08:00;20.10;99.90
16441;DHT22;8330;-33.858;151.184;2023-04-25T13:10:33;20.10;99.90
16441;DHT22;8330;-33.858;151.184;2023-04-25T13:13:06;20.10;99.90
16441;DHT22;8330;-33.858;151.184;2023-04-25T13:15:37;20.00;99.90
16441;DHT22;8330;-33.858;151.184;2023-04-25T13:18:10;19.90;99.90
16441;DHT22;8330;-33.858;151.184;2023-04-25T13:20:41;19.90;99.90
16441;DHT22;8330;-33.858;151.184;2023-04-25T13:23:12;19.80;99.90
16441;DHT22;8330;-33.858;151.184;2023-04-25T13:25:43;19.80;99.90
16441;DHT22;8330;-33.858;151.184;2023-04-25T13:28:14;19.80;99.90
16441;DHT22;8330;-33.858;151.184;2023-04-25T13:30:53;19.80;99.90
16441;DHT22;8330;-33.858;151.184;2023-04-25T13:33:26;19.90;99.90
16441;DHT22;8330;-33.858;151.184;2023-04-25T13:36:00;20.00;99.90
16441;DHT22;8330;-33.858;151.184;2023-04-25T13:38:32;19.90;99.90
16441;DHT22;8330;-33.858;151.184;2023-04-25T13:41:03;19.90;99.90
16441;DHT22;8330;-33.858;151.184;2023-04-25T13:43:35;19.90;99.90
16441;DHT22;8330;-33.858;151.184;2023-04-25T13:46:06;19.90;99.90
16441;DHT22;8330;-33.858;151.184;2023-04-25T13:48:39;19.90;99.90
16441;DHT22;8330;-33.858;151.184;2023-04-25T13:51:17;19.90;99.90
16441;DHT22;8330;-33.858;151.184;2023-04-25T13:53:48;19.80;99.90
16441;DHT22;8330;-33.858;151.184;2023-04-25T13:56:20;19.80;99.90
16441;DHT22;8330;-33.858;151.184;2023-04-25T13:58:52;19.80;99.90
16441;DHT22;8330;-33.858;151.184;2023-04-25T14:01:23;19.80;99.90
16441;DHT22;8330;-33.858;151.184;2023-04-25T14:03:56;19.70;99.90
16441;DHT22;8330;-33.858;151.184;2023-04-25T14:06:27;19.80;99.90
16441;DHT22;8330;-33.858;151.184;2023-04-25T14:08:58;19.70;99.90
16441;DHT22;8330;-33.858;151.184;2023-04-25T14:11:29;19.70;99.90
16441;DHT22;8330;-33.858;151.184;2023-04-25T14:14:00;19.70;99.90
16441;DHT22;8330;-33.858;151.184;2023-04-25T14:16:32;19.70;99.90
16441;DHT22;8330;-33.858;151.184;2023-04-25T14:19:05;19.70;99.90
16441;DHT22;8330;-33.858;151.184;2023-04-25T14:21:36;19.70;99.90
16441;DHT22;8330;-33.858;151.184;2023-04-25T14:24:08;19.60;99.90
16441;DHT22;8330;-33.858;151.184;2023-04-25T14:26:39;19.60;99.90
16441;DHT22;8330;-33.858;151.184;2023-04-25T14:29:10;19.60;99.90
16441;DHT22;8330;-33.858;151.184;2023-04-25T14:31:41;19.60;99.90
16441;DHT22;8330;-33.858;151.184;2023-04-25T14:34:14;19.50;99.90
16441;DHT22;8330;-33.858;151.184;2023-04-25T14:36:46;19.60;99.90
16441;DHT22;8330;-33.858;151.184;2023-04-25T14:39:17;19.50;99.90
16441;DHT22;8330;-33.858;151.184;2023-04-25T14:41:48;19.60;99.90
16441;DHT22;8330;-33.858;151.184;2023-04-25T14:44:19;19.50;99.90
16441;DHT22;8330;-33.858;151.184;2023-04-25T14:46:50;19.50;99.90
16441;DHT22;8330;-33.858;151.184;2023-04-25T14:49:24;19.40;99.90
16441;DHT22;8330;-33.858;151.184;2023-04-25T14:51:56;19.40;99.90
16441;DHT22;8330;-33.858;151.184;2023-04-25T14:54:27;19.40;99.90
16441;DHT22;8330;-33.858;151.184;2023-04-25T14:56:58;19.40;99.90
16441;DHT22;8330;-33.858;151.184;2023-04-25T14:59:30;19.30;99.90
16441;DHT22;8330;-33.858;151.184;2023-04-25T15:02:01;19.30;99.90
16441;DHT22;8330;-33.858;151.184;2023-04-25T15:04:34;19.30;99.90
16441;DHT22;8330;-33.858;151.184;2023-04-25T15:07:05;19.20;99.90
16441;DHT22;8330;-33.858;151.184;2023-04-25T15:09:36;19.30;99.90
16441;DHT22;8330;-33.858;151.184;2023-04-25T15:12:07;19.20;99.90
16441;DHT22;8330;-33.858;151.184;2023-04-25T15:14:39;19.20;99.90
16441;DHT22;8330;-33.858;151.184;2023-04-25T15:17:10;19.20;99.90
16441;DHT22;8330;-33.858;151.184;2023-04-25T15:19:44;19.20;99.90
16441;DHT22;8330;-33.858;151.184;2023-04-25T15:22:15;19.20;99.90
16441;DHT22;8330;-33.858;151.184;2023-04-25T15:24:46;19.10;99.90
16441;DHT22;8330;-33.858;151.184;2023-04-25T15:27:17;19.10;99.90
16441;DHT22;8330;-33.858;151.184;2023-04-25T15:29:49;19.10;99.90
16441;DHT22;8330;-33.858;151.184;2023-04-25T15:32:20;19.00;99.90
16441;DHT22;8330;-33.858;151.184;2023-04-25T15:34:53;19.00;99.90